createdAt,value
2022-09-18T00:01:13.544Z,1.40
2022-09-18T00:03:42.766Z,4.78
2022-09-18T00:06:12.333Z,1.75
2022-09-18T00:08:41.121Z,5.80
2022-09-18T00:11:11.532Z,0.77
2022-09-18T00:13:40.593Z,2.08
2022-09-18T00:16:12.736Z,3.65
2022-09-18T00:18:40.943Z,0.68
2022-09-18T00:21:10.879Z,5.72
2022-09-18T00:23:39.354Z,3.80
2022-09-18T00:26:08.886Z,0.65
2022-09-18T00:28:37.237Z,1.13
2022-09-18T00:31:06.556Z,2.60
2022-09-18T00:33:37.498Z,0.25
2022-09-18T00:36:07.310Z,0.88
2022-09-18T00:38:36.047Z,0.85
2022-09-18T00:41:07.142Z,0.55
2022-09-18T00:43:37.190Z,0.32
2022-09-18T00:46:08.430Z,4.00
2022-09-18T00:48:45.883Z,0.88
2022-09-18T00:51:15.071Z,1.20
2022-09-18T00:53:49.115Z,2.60
2022-09-18T00:56:17.291Z,0.90
2022-09-18T00:58:46.057Z,0.40
2022-09-18T01:01:14.069Z,2.75
2022-09-18T01:03:43.455Z,0.50
2022-09-18T01:06:15.514Z,0.50
2022-09-18T01:08:56.402Z,3.53
2022-09-18T01:11:35.916Z,1.95
2022-09-18T01:14:16.244Z,0.75
2022-09-18T01:16:52.797Z,0.75
2022-09-18T01:19:52.099Z,0.50
2022-09-18T01:22:30.485Z,1.02
2022-09-18T01:25:11.350Z,1.63
2022-09-18T01:28:00.890Z,0.60
2022-09-18T01:30:29.293Z,2.65
2022-09-18T01:33:00.991Z,2.55
2022-09-18T01:35:41.582Z,1.27
2022-09-18T01:38:14.946Z,1.92
2022-09-18T01:40:47.617Z,3.55
2022-09-18T01:43:20.514Z,0.60
2022-09-18T01:45:51.609Z,2.75
2022-09-18T01:48:25.998Z,0.60
2022-09-18T01:50:57.132Z,1.00
2022-09-18T01:53:30.146Z,0.57
2022-09-18T01:56:02.577Z,0.60
2022-09-18T01:58:35.491Z,0.40
2022-09-18T02:01:09.068Z,0.40
2022-09-18T02:03:40.587Z,0.30
2022-09-18T02:06:12.747Z,1.17
2022-09-18T02:08:45.054Z,1.38
2022-09-18T02:11:15.045Z,0.82
2022-09-18T02:13:48.930Z,0.68
2022-09-18T02:16:23.212Z,0.98
2022-09-18T02:18:55.862Z,0.25
2022-09-18T02:21:27.443Z,1.48
2022-09-18T02:23:57.367Z,0.25
2022-09-18T02:26:25.770Z,1.35
2022-09-18T02:28:56.862Z,0.57
2022-09-18T02:31:25.118Z,0.90
2022-09-18T02:33:53.569Z,0.30
2022-09-18T02:36:43.707Z,0.30
2022-09-18T02:39:26.553Z,0.63
2022-09-18T02:42:03.671Z,1.48
2022-09-18T02:44:43.392Z,1.27
2022-09-18T02:47:23.748Z,0.30
2022-09-18T02:49:59.904Z,2.40
2022-09-18T02:52:36.468Z,0.43
2022-09-18T02:55:11.539Z,0.20
2022-09-18T02:57:45.137Z,1.60
2022-09-18T03:00:18.576Z,0.60
2022-09-18T03:02:47.178Z,1.30
2022-09-18T03:05:15.169Z,0.50
2022-09-18T03:07:43.043Z,1.10
2022-09-18T03:10:14.430Z,1.80
2022-09-18T03:12:42.267Z,1.17
2022-09-18T03:15:11.546Z,1.85
2022-09-18T03:17:40.756Z,1.15
2022-09-18T03:20:09.366Z,1.00
2022-09-18T03:22:37.246Z,0.77
2022-09-18T03:25:05.778Z,0.85
2022-09-18T03:27:33.638Z,0.25
2022-09-18T03:30:01.489Z,2.40
2022-09-18T03:32:29.377Z,0.65
2022-09-18T03:34:58.578Z,0.60
2022-09-18T03:37:26.422Z,1.70
2022-09-18T03:39:54.361Z,1.65
2022-09-18T03:42:22.246Z,0.77
2022-09-18T03:44:50.144Z,0.60
2022-09-18T03:47:17.991Z,0.45
2022-09-18T03:49:45.870Z,0.40
2022-09-18T03:52:15.148Z,0.30
2022-09-18T03:54:43.027Z,0.70
2022-09-18T03:57:10.936Z,0.68
2022-09-18T03:59:38.944Z,1.33
2022-09-18T04:02:06.843Z,0.77
2022-09-18T04:04:35.507Z,0.98
2022-09-18T04:07:03.470Z,0.30
2022-09-18T04:09:32.754Z,1.10
2022-09-18T04:12:00.862Z,1.50
2022-09-18T04:14:30.250Z,1.13
2022-09-18T04:16:58.343Z,1.13
2022-09-18T04:19:26.234Z,0.73
2022-09-18T04:21:54.125Z,0.30
2022-09-18T04:24:21.997Z,0.82
2022-09-18T04:26:51.216Z,0.75
2022-09-18T04:29:19.098Z,0.30
2022-09-18T04:31:47.032Z,0.40
2022-09-18T04:34:15.953Z,0.50
2022-09-18T04:36:43.817Z,0.98
2022-09-18T04:39:11.790Z,0.35
2022-09-18T04:41:39.775Z,0.30
2022-09-18T04:44:09.110Z,0.20
2022-09-18T04:46:37.084Z,1.40
2022-09-18T04:49:05.207Z,1.08
2022-09-18T04:51:33.053Z,0.45
2022-09-18T04:54:01.219Z,0.40
2022-09-18T04:56:29.319Z,0.75
2022-09-18T04:58:57.181Z,0.20
2022-09-18T05:01:26.443Z,0.75
2022-09-18T05:03:54.286Z,0.30
2022-09-18T05:06:22.121Z,0.32
2022-09-18T05:08:49.948Z,0.40
2022-09-18T05:11:17.851Z,1.48
2022-09-18T05:13:48.565Z,0.60
2022-09-18T05:16:16.979Z,0.20
2022-09-18T05:18:46.275Z,0.35
2022-09-18T05:21:14.311Z,1.02
2022-09-18T05:23:45.070Z,0.57
2022-09-18T05:26:13.311Z,0.40
2022-09-18T05:28:41.254Z,0.52
2022-09-18T05:31:09.352Z,1.38
2022-09-18T05:33:38.660Z,0.32
2022-09-18T05:36:08.326Z,0.80
2022-09-18T05:38:36.229Z,0.20
2022-09-18T05:41:04.820Z,0.77
2022-09-18T05:43:32.728Z,0.52
2022-09-18T05:46:02.124Z,0.38
2022-09-18T05:48:30.014Z,0.43
2022-09-18T05:50:58.055Z,0.15
2022-09-18T05:53:27.328Z,0.30
2022-09-18T05:55:55.215Z,0.20
2022-09-18T05:58:23.114Z,0.28
2022-09-18T06:00:52.322Z,0.95
2022-09-18T06:03:20.343Z,0.30
2022-09-18T06:05:53.486Z,0.28
2022-09-18T06:08:22.164Z,1.55
2022-09-18T06:10:51.939Z,1.08
2022-09-18T06:13:20.085Z,1.52
2022-09-18T06:15:49.758Z,1.95
2022-09-18T06:18:17.692Z,0.68
2022-09-18T06:20:53.334Z,0.25
2022-09-18T06:23:21.409Z,0.40
2022-09-18T06:25:49.299Z,0.43
2022-09-18T06:28:18.545Z,0.38
2022-09-18T06:30:46.423Z,0.50
2022-09-18T06:33:14.340Z,0.35
2022-09-18T06:35:42.555Z,0.43
2022-09-18T06:38:11.580Z,0.30
2022-09-18T06:40:39.551Z,0.25
2022-09-18T06:43:07.483Z,0.20
2022-09-18T06:45:36.739Z,0.50
2022-09-18T06:48:05.274Z,0.70
2022-09-18T06:50:33.206Z,0.20
2022-09-18T06:53:03.063Z,0.20
2022-09-18T06:55:31.573Z,0.50
2022-09-18T06:58:00.102Z,0.30
2022-09-18T07:00:29.145Z,0.43
2022-09-18T07:03:00.029Z,0.20
2022-09-18T07:05:29.823Z,0.35
2022-09-18T07:07:57.957Z,0.68
2022-09-18T07:10:27.046Z,0.30
2022-09-18T07:12:57.394Z,0.20
2022-09-18T07:15:25.283Z,0.95
2022-09-18T07:17:53.190Z,0.45
2022-09-18T07:20:22.573Z,0.20
2022-09-18T07:22:54.218Z,0.63
2022-09-18T07:25:22.569Z,0.20
2022-09-18T07:27:50.874Z,2.38
2022-09-18T07:30:19.286Z,1.42
2022-09-18T07:32:47.383Z,0.60
2022-09-18T07:35:15.469Z,1.05
2022-09-18T07:37:44.767Z,0.25
2022-09-18T07:40:12.899Z,0.38
2022-09-18T07:42:40.946Z,1.13
2022-09-18T07:45:09.274Z,0.55
2022-09-18T07:47:37.159Z,0.30
2022-09-18T07:50:05.560Z,0.65
2022-09-18T07:52:33.462Z,0.60
2022-09-18T07:55:02.663Z,0.50
2022-09-18T07:57:30.887Z,3.15
2022-09-18T07:59:58.838Z,0.30
2022-09-18T08:02:26.887Z,1.08
2022-09-18T08:04:54.811Z,1.15
2022-09-18T08:07:22.756Z,1.48
2022-09-18T08:09:50.690Z,0.45
2022-09-18T08:12:19.933Z,0.47
2022-09-18T08:14:47.841Z,0.55
2022-09-18T08:17:15.810Z,0.85
2022-09-18T08:19:43.711Z,1.95
2022-09-18T08:22:11.665Z,0.47
2022-09-18T08:24:39.609Z,2.75
2022-09-18T08:27:07.551Z,0.32
2022-09-18T08:29:36.823Z,0.30
2022-09-18T08:32:09.571Z,2.20
2022-09-18T08:34:37.780Z,1.27
2022-09-18T08:37:05.719Z,1.02
2022-09-18T08:39:33.615Z,0.50
2022-09-18T08:42:12.663Z,0.40
2022-09-18T08:44:48.752Z,3.60
2022-09-18T08:47:22.120Z,0.65
2022-09-18T08:49:55.169Z,0.50
2022-09-18T08:52:25.743Z,3.00
2022-09-18T08:54:58.935Z,1.77
2022-09-18T08:57:31.834Z,1.20
2022-09-18T09:00:07.083Z,1.85
2022-09-18T09:02:41.138Z,0.57
2022-09-18T09:05:12.365Z,1.83
2022-09-18T09:07:55.246Z,4.30
2022-09-18T09:10:37.723Z,4.18
2022-09-18T09:13:44.929Z,1.67
2022-09-18T09:16:17.524Z,2.03
2022-09-18T09:18:56.345Z,2.58
2022-09-18T09:21:25.765Z,1.38
2022-09-18T09:24:17.165Z,4.28
2022-09-18T09:26:45.373Z,2.80
2022-09-18T09:29:17.588Z,2.88
2022-09-18T09:31:51.534Z,5.00
2022-09-18T09:34:23.202Z,4.20
2022-09-18T09:36:54.612Z,2.35
2022-09-18T09:39:27.079Z,1.65
2022-09-18T09:41:59.180Z,0.77
2022-09-18T09:44:35.276Z,1.17
2022-09-18T09:47:16.557Z,3.40
2022-09-18T09:49:54.679Z,0.82
2022-09-18T09:52:25.307Z,2.55
2022-09-18T09:54:57.176Z,1.17
2022-09-18T09:57:30.130Z,4.07
2022-09-18T10:00:09.200Z,1.35
2022-09-18T10:03:11.437Z,0.98
2022-09-18T10:05:44.429Z,1.08
2022-09-18T10:08:17.998Z,2.78
2022-09-18T10:10:50.335Z,2.72
2022-09-18T10:13:22.114Z,1.95
2022-09-18T10:15:52.886Z,1.50
2022-09-18T10:18:26.002Z,5.30
2022-09-18T10:20:58.675Z,1.38
2022-09-18T10:23:34.030Z,2.28
2022-09-18T10:26:02.800Z,2.95
2022-09-18T10:28:31.414Z,0.82
2022-09-18T10:31:02.418Z,3.50
2022-09-18T10:33:38.232Z,3.08
2022-09-18T10:36:30.374Z,2.42
2022-09-18T10:39:00.152Z,1.10
2022-09-18T10:41:40.440Z,2.60
2022-09-18T10:44:22.365Z,0.90
2022-09-18T10:46:57.510Z,2.85
2022-09-18T10:49:30.399Z,3.15
2022-09-18T10:52:35.094Z,2.15
2022-09-18T10:55:12.843Z,1.20
2022-09-18T10:57:43.722Z,2.63
2022-09-18T11:00:37.086Z,1.40
2022-09-18T11:03:49.656Z,1.38
2022-09-18T11:06:23.842Z,0.85
2022-09-18T11:08:53.595Z,3.30
2022-09-18T11:11:26.165Z,1.13
2022-09-18T11:13:59.529Z,2.38
2022-09-18T11:16:29.675Z,0.60
2022-09-18T11:19:07.596Z,1.40
2022-09-18T11:21:45.066Z,0.85
2022-09-18T11:24:21.756Z,2.13
2022-09-18T11:26:54.772Z,0.90
2022-09-18T11:29:42.215Z,0.75
2022-09-18T11:32:17.046Z,0.40
2022-09-18T11:34:49.528Z,0.55
2022-09-18T11:37:28.468Z,0.70
2022-09-18T11:40:00.785Z,0.60
2022-09-18T11:42:29.224Z,3.20
2022-09-18T11:45:10.615Z,6.72
2022-09-18T11:47:43.860Z,3.25
2022-09-18T11:50:16.403Z,3.28
2022-09-18T11:52:47.299Z,1.40
2022-09-18T11:55:25.059Z,0.88
2022-09-18T11:57:55.431Z,0.60
2022-09-18T12:00:24.602Z,2.10
2022-09-18T12:03:02.333Z,0.50
2022-09-18T12:05:36.326Z,0.82
2022-09-18T12:08:15.712Z,1.13
2022-09-18T12:10:52.687Z,1.25
2022-09-18T12:13:34.238Z,2.05
2022-09-18T12:16:11.963Z,0.70
2022-09-18T12:18:54.905Z,1.17
2022-09-18T12:21:36.122Z,2.33
2022-09-18T12:24:13.040Z,0.80
2022-09-18T12:26:52.327Z,1.85
2022-09-18T12:29:33.453Z,1.63
2022-09-18T12:32:14.034Z,1.48
2022-09-18T12:34:49.622Z,0.40
2022-09-18T12:37:36.188Z,1.13
2022-09-18T12:40:25.403Z,0.82
2022-09-18T12:43:06.910Z,3.13
2022-09-18T12:46:02.985Z,0.75
2022-09-18T12:48:41.345Z,1.10
2022-09-18T12:51:32.370Z,0.55
2022-09-18T12:54:13.250Z,0.98
2022-09-18T12:57:01.377Z,2.67
2022-09-18T12:59:55.057Z,0.82
2022-09-18T13:02:38.790Z,0.75
2022-09-18T13:05:12.567Z,2.08
2022-09-18T13:07:47.832Z,2.60
2022-09-18T13:10:21.178Z,2.67
2022-09-18T13:12:55.900Z,0.43
2022-09-18T13:15:28.328Z,0.60
2022-09-18T13:18:04.487Z,0.45
2022-09-18T13:20:37.424Z,2.90
2022-09-18T13:23:07.046Z,2.97
2022-09-18T13:25:39.298Z,0.93
2022-09-18T13:28:15.763Z,2.78
2022-09-18T13:30:44.778Z,1.63
2022-09-18T13:33:24.405Z,0.68
2022-09-18T13:35:56.670Z,2.72
2022-09-18T13:38:27.681Z,2.83
2022-09-18T13:41:01.642Z,1.05
2022-09-18T13:43:40.951Z,4.90
2022-09-18T13:46:11.027Z,6.07
2022-09-18T13:48:45.819Z,6.18
2022-09-18T13:51:22.148Z,1.92
2022-09-18T13:54:17.644Z,2.97
2022-09-18T13:57:21.938Z,9.00
2022-09-18T14:00:19.625Z,5.28
2022-09-18T14:02:49.673Z,2.90
2022-09-18T14:05:32.962Z,1.75
2022-09-18T14:08:10.356Z,1.05
2022-09-18T14:11:19.539Z,6.53
2022-09-18T14:13:54.130Z,2.17
2022-09-18T14:16:32.984Z,6.15
2022-09-18T14:19:16.645Z,2.08
2022-09-18T14:21:45.673Z,3.00
2022-09-18T14:24:56.343Z,3.08
2022-09-18T14:27:50.647Z,1.08
2022-09-18T14:30:22.075Z,1.00
2022-09-18T14:33:13.331Z,4.07
2022-09-18T14:35:50.849Z,1.08
2022-09-18T14:38:27.553Z,6.15
2022-09-18T14:41:00.578Z,5.82
2022-09-18T14:43:28.690Z,5.78
2022-09-18T14:45:57.073Z,4.15
2022-09-18T14:48:30.365Z,4.05
2022-09-18T14:51:05.833Z,3.55
2022-09-18T14:53:43.676Z,3.38
2022-09-18T14:56:15.829Z,4.95
2022-09-18T14:58:47.722Z,4.35
2022-09-18T15:01:19.368Z,5.55
2022-09-18T15:03:50.240Z,5.35
2022-09-18T15:06:22.481Z,9.23
2022-09-18T15:08:53.329Z,8.88
2022-09-18T15:11:23.747Z,5.90
2022-09-18T15:13:54.207Z,3.60
2022-09-18T15:16:27.101Z,5.55
2022-09-18T15:18:55.675Z,7.43
2022-09-18T15:21:32.858Z,7.35
2022-09-18T15:24:03.224Z,10.43
2022-09-18T15:26:33.688Z,9.57
2022-09-18T15:29:05.045Z,5.25
2022-09-18T15:31:34.383Z,8.05
2022-09-18T15:34:08.642Z,11.88
2022-09-18T15:36:40.871Z,11.40
2022-09-18T15:39:23.758Z,7.10
2022-09-18T15:41:52.544Z,5.68
2022-09-18T15:45:10.235Z,11.32
2022-09-18T15:47:40.214Z,11.15
2022-09-18T15:50:38.035Z,15.50
2022-09-18T15:53:25.257Z,10.30
2022-09-18T15:56:01.806Z,10.10
2022-09-18T15:58:46.406Z,6.97
2022-09-18T16:01:35.375Z,8.18
2022-09-18T16:04:08.944Z,8.50
2022-09-18T16:06:43.536Z,10.43
2022-09-18T16:09:24.214Z,8.45
2022-09-18T16:11:52.735Z,8.77
2022-09-18T16:14:46.658Z,15.43
2022-09-18T16:17:36.621Z,11.75
2022-09-18T16:20:25.040Z,10.63
2022-09-18T16:22:56.083Z,8.75
2022-09-18T16:25:28.831Z,6.47
2022-09-18T16:27:58.790Z,11.68
2022-09-18T16:30:27.337Z,13.60
2022-09-18T16:33:00.578Z,8.32
2022-09-18T16:35:28.444Z,9.30
2022-09-18T16:37:56.339Z,10.60
2022-09-18T16:40:28.945Z,10.63
2022-09-18T16:42:58.443Z,12.85
2022-09-18T16:45:27.819Z,12.48
2022-09-18T16:48:00.673Z,9.90
2022-09-18T16:50:28.994Z,7.75
2022-09-18T16:53:01.254Z,10.27
2022-09-18T16:55:32.228Z,10.35
2022-09-18T16:58:00.883Z,9.85
2022-09-18T17:00:29.047Z,12.93
2022-09-18T17:02:57.715Z,7.55
2022-09-18T17:05:25.690Z,10.45
2022-09-18T17:07:53.559Z,8.40
2022-09-18T17:10:21.744Z,10.02
2022-09-18T17:12:51.162Z,9.00
2022-09-18T17:15:19.120Z,7.50
2022-09-18T17:17:46.993Z,9.75
2022-09-18T17:20:17.809Z,12.40
2022-09-18T17:22:45.880Z,8.25
2022-09-18T17:25:14.319Z,5.78
2022-09-18T17:27:43.841Z,6.38
2022-09-18T17:30:13.873Z,12.82
2022-09-18T17:32:41.851Z,9.00
2022-09-18T17:35:09.794Z,5.40
2022-09-18T17:37:37.756Z,8.40
2022-09-18T17:40:06.348Z,7.75
2022-09-18T17:42:34.375Z,7.68
2022-09-18T17:45:02.239Z,9.02
2022-09-18T17:47:31.510Z,5.03
2022-09-18T17:49:59.462Z,2.75
2022-09-18T17:52:27.445Z,8.38
2022-09-18T17:54:55.318Z,4.03
2022-09-18T17:57:23.208Z,6.57
2022-09-18T17:59:51.137Z,10.88
2022-09-18T18:02:19.058Z,10.80
2022-09-18T18:04:48.367Z,12.55
2022-09-18T18:07:16.243Z,13.82
2022-09-18T18:09:44.247Z,16.23
2022-09-18T18:12:12.298Z,20.92
2022-09-18T18:14:40.185Z,23.95
2022-09-18T18:17:08.547Z,26.75
2022-09-18T18:19:36.498Z,27.63
2022-09-18T18:22:05.770Z,26.15
2022-09-18T18:24:33.649Z,33.30
2022-09-18T18:27:01.599Z,28.10
2022-09-18T18:29:29.536Z,31.67
2022-09-18T18:31:58.342Z,35.88
2022-09-18T18:34:26.693Z,33.45
2022-09-18T18:36:54.707Z,42.00
2022-09-18T18:39:24.026Z,39.83
2022-09-18T18:41:51.926Z,44.47
2022-09-18T18:44:19.797Z,48.50
2022-09-18T18:46:48.100Z,46.80
2022-09-18T18:49:17.031Z,45.00
2022-09-18T18:51:47.603Z,44.85
2022-09-18T18:54:17.619Z,45.85
2022-09-18T18:56:47.592Z,46.75
2022-09-18T18:59:17.294Z,54.15
2022-09-18T19:01:45.773Z,58.95
2022-09-18T19:04:15.634Z,46.25
2022-09-18T19:06:44.805Z,55.10
2022-09-18T19:09:18.076Z,46.08
2022-09-18T19:11:50.593Z,56.22
2022-09-18T19:14:20.125Z,53.03
2022-09-18T19:16:49.263Z,54.17
2022-09-18T19:19:18.662Z,61.38
2022-09-18T19:21:47.222Z,52.40
2022-09-18T19:24:15.343Z,57.85
2022-09-18T19:26:43.895Z,63.40
2022-09-18T19:29:18.766Z,61.92
2022-09-18T19:31:47.908Z,63.00
2022-09-18T19:34:18.427Z,62.53
2022-09-18T19:36:47.147Z,57.58
2022-09-18T19:39:15.583Z,65.38
2022-09-18T19:41:47.779Z,71.15
2022-09-18T19:44:20.136Z,56.75
2022-09-18T19:46:48.251Z,63.10
2022-09-18T19:49:19.675Z,67.70
2022-09-18T19:51:49.178Z,66.38
2022-09-18T19:54:17.083Z,56.47
2022-09-18T19:56:49.223Z,60.72
2022-09-18T19:59:18.500Z,68.63
2022-09-18T20:01:46.498Z,66.88
2022-09-18T20:04:14.414Z,78.50
2022-09-18T20:06:42.391Z,79.07
2022-09-18T20:09:11.054Z,68.80
2022-09-18T20:11:38.949Z,96.30
2022-09-18T20:14:06.845Z,68.68
2022-09-18T20:16:36.131Z,73.50
2022-09-18T20:19:05.957Z,72.25
2022-09-18T20:21:34.222Z,67.10
2022-09-18T20:24:02.465Z,58.13
2022-09-18T20:26:30.385Z,66.85
2022-09-18T20:28:58.358Z,66.22
2022-09-18T20:31:26.501Z,71.47
2022-09-18T20:33:59.796Z,63.42
2022-09-18T20:36:29.295Z,69.55
2022-09-18T20:39:00.567Z,63.40
2022-09-18T20:41:29.608Z,74.53
2022-09-18T20:44:00.161Z,69.95
2022-09-18T20:46:28.190Z,66.60
2022-09-18T20:48:56.128Z,71.50
2022-09-18T20:51:27.589Z,71.60
2022-09-18T20:53:57.261Z,62.67
2022-09-18T20:56:26.647Z,63.90
2022-09-18T20:58:55.058Z,69.10
2022-09-18T21:01:24.956Z,67.05
2022-09-18T21:03:56.603Z,69.78
2022-09-18T21:06:27.850Z,69.88
2022-09-18T21:08:56.744Z,66.13
2022-09-18T21:11:26.497Z,66.57
2022-09-18T21:13:56.042Z,69.50
2022-09-18T21:16:26.123Z,73.60
2022-09-18T21:18:56.585Z,69.57
2022-09-18T21:21:26.973Z,76.03
2022-09-18T21:23:56.360Z,67.43
2022-09-18T21:26:26.800Z,65.68
2022-09-18T21:28:57.213Z,71.15
2022-09-18T21:31:25.663Z,73.00
2022-09-18T21:33:53.942Z,71.78
2022-09-18T21:36:22.621Z,75.32
2022-09-18T21:38:52.507Z,70.15
2022-09-18T21:41:22.374Z,72.28
2022-09-18T21:43:50.687Z,69.10
2022-09-18T21:46:20.794Z,70.70
2022-09-18T21:48:52.850Z,68.20
2022-09-18T21:51:21.188Z,72.15
2022-09-18T21:53:49.187Z,66.65
2022-09-18T21:56:21.217Z,77.78
2022-09-18T21:58:50.219Z,67.55
2022-09-18T22:01:20.173Z,68.45
2022-09-18T22:03:54.597Z,75.95
2022-09-18T22:06:24.273Z,64.72
2022-09-18T22:08:54.490Z,65.95
2022-09-18T22:11:26.142Z,69.85
2022-09-18T22:13:54.989Z,66.15
2022-09-18T22:16:24.212Z,75.38
2022-09-18T22:18:53.042Z,72.88
2022-09-18T22:21:23.213Z,72.47
2022-09-18T22:23:52.866Z,75.53
2022-09-18T22:26:21.182Z,77.40
2022-09-18T22:28:53.959Z,73.82
2022-09-18T22:31:22.565Z,72.93
2022-09-18T22:33:56.141Z,74.72
2022-09-18T22:36:24.685Z,77.35
2022-09-18T22:38:53.261Z,74.05
2022-09-18T22:41:21.866Z,75.32
2022-09-18T22:43:54.946Z,74.68
2022-09-18T22:46:24.241Z,69.63
2022-09-18T22:48:52.302Z,66.53
2022-09-18T22:51:21.590Z,63.70
2022-09-18T22:53:51.247Z,62.33
2022-09-18T22:56:20.906Z,62.38
2022-09-18T22:58:51.462Z,63.28
2022-09-18T23:01:21.458Z,63.15
2022-09-18T23:03:52.347Z,58.78
2022-09-18T23:06:24.882Z,59.13
2022-09-18T23:08:53.897Z,55.67
2022-09-18T23:11:24.203Z,53.28
2022-09-18T23:13:56.385Z,59.00
2022-09-18T23:16:26.040Z,53.22
2022-09-18T23:18:55.532Z,52.85
2022-09-18T23:21:24.117Z,52.30
2022-09-18T23:23:52.190Z,50.75
2022-09-18T23:26:23.834Z,52.97
2022-09-18T23:28:55.102Z,49.08
2022-09-18T23:31:24.971Z,52.05
2022-09-18T23:33:55.214Z,46.20
2022-09-18T23:36:24.884Z,44.97
2022-09-18T23:38:55.034Z,43.40
2022-09-18T23:41:22.923Z,50.53
2022-09-18T23:43:53.083Z,47.05
2022-09-18T23:46:23.713Z,45.55
2022-09-18T23:48:55.664Z,42.03
2022-09-18T23:51:25.785Z,41.75
2022-09-18T23:53:56.701Z,44.38
2022-09-18T23:56:25.232Z,43.78
2022-09-18T23:58:55.282Z,43.08
